createdAt,value
2019-06-08T00:00:59.393Z,0.00
2019-06-08T00:02:52.310Z,0.00
2019-06-08T00:03:52.319Z,0.00
2019-06-08T00:05:45.240Z,0.00
2019-06-08T00:06:45.251Z,0.00
2019-06-08T00:08:38.192Z,0.00
2019-06-08T00:09:38.178Z,0.00
2019-06-08T00:11:31.097Z,0.00
2019-06-08T00:12:31.107Z,0.00
2019-06-08T00:14:24.032Z,0.00
2019-06-08T00:15:24.432Z,0.00
2019-06-08T00:17:31.391Z,0.00
2019-06-08T00:18:17.345Z,0.00
2019-06-08T00:20:09.886Z,0.00
2019-06-08T00:21:09.893Z,0.00
2019-06-08T00:23:02.808Z,0.00
2019-06-08T00:24:02.822Z,0.00
2019-06-08T00:25:55.738Z,0.00
2019-06-08T00:26:55.746Z,0.00
2019-06-08T00:28:48.673Z,0.00
2019-06-08T00:29:48.678Z,0.00
2019-06-08T00:31:41.597Z,0.00
2019-06-08T00:32:41.610Z,0.00
2019-06-08T00:34:34.528Z,0.00
2019-06-08T00:35:34.534Z,0.00
2019-06-08T00:37:27.451Z,0.00
2019-06-08T00:38:27.469Z,0.00
2019-06-08T00:40:21.098Z,0.00
2019-06-08T00:41:21.948Z,0.00
2019-06-08T00:43:13.365Z,0.00
2019-06-08T00:44:13.341Z,0.00
2019-06-08T00:46:06.258Z,0.00
2019-06-08T00:47:06.259Z,0.00
2019-06-08T00:48:59.181Z,0.00
2019-06-08T00:49:59.184Z,0.00
2019-06-08T00:51:52.104Z,0.00
2019-06-08T00:52:52.118Z,0.00
2019-06-08T00:54:45.033Z,0.00
2019-06-08T00:55:45.040Z,0.00
2019-06-08T00:57:37.969Z,0.00
2019-06-08T00:58:37.983Z,0.00
2019-06-08T01:00:30.900Z,0.00
2019-06-08T01:01:31.042Z,0.00
2019-06-08T01:03:23.871Z,0.00
2019-06-08T01:04:24.829Z,0.00
2019-06-08T01:06:16.750Z,0.00
2019-06-08T01:07:17.898Z,0.00
2019-06-08T01:09:09.674Z,0.00
2019-06-08T01:10:09.682Z,0.00
2019-06-08T01:12:02.598Z,0.00
2019-06-08T01:13:02.610Z,0.00
2019-06-08T01:14:55.529Z,0.00
2019-06-08T01:15:55.535Z,0.00
2019-06-08T01:18:01.550Z,0.00
2019-06-08T01:18:48.462Z,0.00
2019-06-08T01:20:41.385Z,0.00
2019-06-08T01:21:41.391Z,0.00
2019-06-08T01:23:34.300Z,0.00
2019-06-08T01:24:34.310Z,0.00
2019-06-08T01:26:28.288Z,0.00
2019-06-08T01:27:28.271Z,0.00
2019-06-08T01:29:22.249Z,0.00
2019-06-08T01:30:22.147Z,0.00
2019-06-08T01:32:14.072Z,0.00
2019-06-08T01:33:14.084Z,0.00
2019-06-08T01:35:07.004Z,0.00
2019-06-08T01:36:07.013Z,0.00
2019-06-08T01:37:59.926Z,0.00
2019-06-08T01:38:59.937Z,0.00
2019-06-08T01:40:52.858Z,0.00
2019-06-08T01:41:52.862Z,0.00
2019-06-08T01:43:45.787Z,0.00
2019-06-08T01:44:45.798Z,0.00
2019-06-08T01:46:38.717Z,0.00
2019-06-08T01:47:38.725Z,0.00
2019-06-08T01:49:32.580Z,0.00
2019-06-08T01:50:32.769Z,0.00
2019-06-08T01:52:24.687Z,0.00
2019-06-08T01:53:24.705Z,0.00
2019-06-08T01:55:17.493Z,0.00
2019-06-08T01:56:17.499Z,0.00
2019-06-08T01:58:10.432Z,0.00
2019-06-08T01:59:10.443Z,0.00
2019-06-08T02:01:03.366Z,0.00
2019-06-08T02:02:03.369Z,0.00
2019-06-08T02:03:56.283Z,0.00
2019-06-08T02:04:56.296Z,0.00
2019-06-08T02:06:49.218Z,0.00
2019-06-08T02:07:49.220Z,0.00
2019-06-08T02:09:42.142Z,0.00
2019-06-08T02:10:42.143Z,0.00
2019-06-08T02:12:35.397Z,0.00
2019-06-08T02:13:35.317Z,0.00
2019-06-08T02:15:29.130Z,0.00
2019-06-08T02:16:29.674Z,0.00
2019-06-08T02:18:35.639Z,0.00
2019-06-08T02:19:20.924Z,0.00
2019-06-08T02:21:13.846Z,0.00
2019-06-08T02:22:13.852Z,0.00
2019-06-08T02:24:06.784Z,0.00
2019-06-08T02:25:06.775Z,0.00
2019-06-08T02:26:59.692Z,0.00
2019-06-08T02:27:59.699Z,0.00
2019-06-08T02:29:52.621Z,0.00
2019-06-08T02:30:52.628Z,0.00
2019-06-08T02:32:45.542Z,0.00
2019-06-08T02:33:45.557Z,0.00
2019-06-08T02:35:38.476Z,0.00
2019-06-08T02:36:38.482Z,0.00
2019-06-08T02:38:32.127Z,0.00
2019-06-08T02:39:32.718Z,0.00
2019-06-08T02:41:24.325Z,0.00
2019-06-08T02:42:24.331Z,0.00
2019-06-08T02:44:17.245Z,0.00
2019-06-08T02:45:17.258Z,0.00
2019-06-08T02:47:10.176Z,0.00
2019-06-08T02:48:10.181Z,0.00
2019-06-08T02:50:03.109Z,0.00
2019-06-08T02:51:03.109Z,0.00
2019-06-08T02:52:56.025Z,0.00
2019-06-08T02:53:56.034Z,0.00
2019-06-08T02:55:48.948Z,0.00
2019-06-08T02:56:48.955Z,0.00
2019-06-08T02:58:42.085Z,0.00
2019-06-08T02:59:42.077Z,5.63
2019-06-08T03:01:36.046Z,5.63
2019-06-08T03:02:36.870Z,5.63
2019-06-08T03:04:27.919Z,5.63
2019-06-08T03:05:27.926Z,0.00
2019-06-08T03:07:20.846Z,5.63
2019-06-08T03:08:20.864Z,5.63
2019-06-08T03:10:13.773Z,5.63
2019-06-08T03:11:13.780Z,5.63
2019-06-08T03:13:06.690Z,5.63
2019-06-08T03:14:06.702Z,5.63
2019-06-08T03:15:59.620Z,11.25
2019-06-08T03:16:59.631Z,11.25
2019-06-08T03:18:52.540Z,11.25
2019-06-08T03:19:52.551Z,11.25
2019-06-08T03:21:45.469Z,11.25
2019-06-08T03:22:45.478Z,11.25
2019-06-08T03:24:38.786Z,11.25
2019-06-08T03:25:50.708Z,11.25
2019-06-08T03:27:32.637Z,11.25
2019-06-08T03:28:32.632Z,11.25
2019-06-08T03:30:24.255Z,11.25
2019-06-08T03:31:24.261Z,11.25
2019-06-08T03:33:17.177Z,16.88
2019-06-08T03:34:17.188Z,16.88
2019-06-08T03:36:10.114Z,16.88
2019-06-08T03:37:10.114Z,16.88
2019-06-08T03:39:03.035Z,16.88
2019-06-08T03:40:03.044Z,16.88
2019-06-08T03:41:55.965Z,16.88
2019-06-08T03:42:57.620Z,16.88
2019-06-08T03:44:48.892Z,11.25
2019-06-08T03:45:48.901Z,11.25
2019-06-08T03:47:43.491Z,11.25
2019-06-08T03:48:43.951Z,11.25
2019-06-08T03:50:35.528Z,11.25
2019-06-08T03:51:37.455Z,16.88
2019-06-08T03:53:27.685Z,16.88
2019-06-08T03:54:27.684Z,22.50
2019-06-08T03:56:20.603Z,22.50
2019-06-08T03:57:20.612Z,22.50
2019-06-08T03:59:13.531Z,22.50
2019-06-08T04:00:13.853Z,16.88
2019-06-08T04:02:06.656Z,28.13
2019-06-08T04:03:06.666Z,28.13
2019-06-08T04:04:59.578Z,39.38
2019-06-08T04:05:59.589Z,45.00
2019-06-08T04:07:52.509Z,39.38
2019-06-08T04:08:52.519Z,45.00
2019-06-08T04:10:46.739Z,39.38
2019-06-08T04:11:46.760Z,39.38
2019-06-08T04:13:39.812Z,50.63
2019-06-08T04:14:39.751Z,67.50
2019-06-08T04:16:31.291Z,90.00
2019-06-08T04:17:31.299Z,73.13
2019-06-08T04:19:24.212Z,67.50
2019-06-08T04:20:24.241Z,56.25
2019-06-08T04:22:17.147Z,39.38
2019-06-08T04:23:17.157Z,33.75
2019-06-08T04:25:10.075Z,45.00
2019-06-08T04:26:10.088Z,61.88
2019-06-08T04:28:03.003Z,84.38
2019-06-08T04:29:03.015Z,84.38
2019-06-08T04:30:55.929Z,67.50
2019-06-08T04:31:55.938Z,56.25
2019-06-08T04:33:50.730Z,73.13
2019-06-08T04:34:49.962Z,95.63
2019-06-08T04:36:43.501Z,129.38
2019-06-08T04:37:42.656Z,123.75
2019-06-08T04:39:34.713Z,135.00
2019-06-08T04:40:34.726Z,140.63
2019-06-08T04:42:27.648Z,163.13
2019-06-08T04:43:27.654Z,163.13
2019-06-08T04:45:20.581Z,140.63
2019-06-08T04:46:20.585Z,151.88
2019-06-08T04:48:13.507Z,202.50
2019-06-08T04:49:13.517Z,191.25
2019-06-08T04:51:06.442Z,163.13
2019-06-08T04:52:06.445Z,129.38
2019-06-08T04:53:59.359Z,163.13
2019-06-08T04:54:59.368Z,185.63
2019-06-08T04:56:52.290Z,196.88
2019-06-08T04:57:52.299Z,185.63
2019-06-08T04:59:47.587Z,185.63
2019-06-08T05:00:46.299Z,202.50
2019-06-08T05:02:39.253Z,202.50
2019-06-08T05:03:39.295Z,208.13
2019-06-08T05:05:31.100Z,185.63
2019-06-08T05:06:31.097Z,180.00
2019-06-08T05:08:24.022Z,163.13
2019-06-08T05:09:24.032Z,146.25
2019-06-08T05:11:16.959Z,135.00
2019-06-08T05:12:16.957Z,129.38
2019-06-08T05:14:09.870Z,101.25
2019-06-08T05:15:09.883Z,112.50
2019-06-08T05:17:02.805Z,90.00
2019-06-08T05:18:02.816Z,101.25
2019-06-08T05:19:55.730Z,123.75
2019-06-08T05:20:55.741Z,135.00
2019-06-08T05:22:49.783Z,168.75
2019-06-08T05:23:57.959Z,185.63
2019-06-08T05:25:41.597Z,174.38
2019-06-08T05:26:42.110Z,118.13
2019-06-08T05:28:34.532Z,95.63
2019-06-08T05:29:34.539Z,118.13
2019-06-08T05:31:27.498Z,146.25
2019-06-08T05:32:27.475Z,151.88
2019-06-08T05:34:20.389Z,157.50
2019-06-08T05:35:20.402Z,191.25
2019-06-08T05:37:13.328Z,191.25
2019-06-08T05:38:13.335Z,140.63
2019-06-08T05:40:06.260Z,129.38
2019-06-08T05:41:06.264Z,135.00
2019-06-08T05:42:59.184Z,123.75
2019-06-08T05:43:59.192Z,118.13
2019-06-08T05:45:52.110Z,112.50
2019-06-08T05:46:52.125Z,123.75
2019-06-08T05:48:45.888Z,101.25
2019-06-08T05:49:45.775Z,101.25
2019-06-08T05:51:37.974Z,90.00
2019-06-08T05:52:37.983Z,123.75
2019-06-08T05:54:30.899Z,95.63
2019-06-08T05:55:30.911Z,95.63
2019-06-08T05:57:23.835Z,95.63
2019-06-08T05:58:23.844Z,95.63
2019-06-08T06:00:16.770Z,84.38
2019-06-08T06:01:16.771Z,95.63
2019-06-08T06:03:09.694Z,84.38
2019-06-08T06:04:09.700Z,84.38
2019-06-08T06:06:02.619Z,84.38
2019-06-08T06:07:02.631Z,84.38
2019-06-08T06:08:55.551Z,78.75
2019-06-08T06:09:55.560Z,90.00
2019-06-08T06:11:48.927Z,95.63
2019-06-08T06:12:49.073Z,84.38
2019-06-08T06:14:41.414Z,84.38
2019-06-08T06:15:41.426Z,78.75
2019-06-08T06:17:34.359Z,95.63
2019-06-08T06:18:34.359Z,106.88
2019-06-08T06:20:27.274Z,157.50
2019-06-08T06:21:27.291Z,140.63
2019-06-08T06:23:20.206Z,112.50
2019-06-08T06:24:20.213Z,106.88
2019-06-08T06:26:13.137Z,129.38
2019-06-08T06:27:13.146Z,112.50
2019-06-08T06:29:06.063Z,101.25
2019-06-08T06:30:06.071Z,101.25
2019-06-08T06:31:58.992Z,101.25
2019-06-08T06:32:58.998Z,101.25
2019-06-08T06:34:52.289Z,95.63
2019-06-08T06:35:52.219Z,101.25
2019-06-08T06:37:45.895Z,106.88
2019-06-08T06:38:45.909Z,118.13
2019-06-08T06:40:37.780Z,151.88
2019-06-08T06:41:37.791Z,146.25
2019-06-08T06:43:30.712Z,185.63
2019-06-08T06:44:30.721Z,208.13
2019-06-08T06:46:23.638Z,180.00
2019-06-08T06:47:23.652Z,196.88
2019-06-08T06:49:16.572Z,236.25
2019-06-08T06:50:16.581Z,230.63
2019-06-08T06:52:09.508Z,213.75
2019-06-08T06:53:09.512Z,213.75
2019-06-08T06:55:02.430Z,151.88
2019-06-08T06:56:02.452Z,146.25
2019-06-08T06:57:55.363Z,174.38
2019-06-08T06:58:55.370Z,219.38
2019-06-08T07:00:49.414Z,258.75
2019-06-08T07:01:52.610Z,213.75
2019-06-08T07:03:41.226Z,213.75
2019-06-08T07:04:41.235Z,196.88
2019-06-08T07:06:34.154Z,196.88
2019-06-08T07:07:34.165Z,298.13
2019-06-08T07:09:27.103Z,376.88
2019-06-08T07:10:27.092Z,416.25
2019-06-08T07:12:20.013Z,309.38
2019-06-08T07:13:20.030Z,270.00
2019-06-08T07:15:12.938Z,337.50
2019-06-08T07:16:18.314Z,348.75
2019-06-08T07:18:05.879Z,337.50
2019-06-08T07:19:05.883Z,376.88
2019-06-08T07:20:58.795Z,337.50
2019-06-08T07:21:58.811Z,331.88
2019-06-08T07:23:54.453Z,298.13
2019-06-08T07:24:52.539Z,331.88
2019-06-08T07:26:44.662Z,219.38
2019-06-08T07:27:44.669Z,247.50
2019-06-08T07:29:37.610Z,219.38
2019-06-08T07:30:37.601Z,247.50
2019-06-08T07:32:30.530Z,241.88
2019-06-08T07:33:30.534Z,185.63
2019-06-08T07:35:23.453Z,270.00
2019-06-08T07:36:23.466Z,331.88
2019-06-08T07:38:16.395Z,292.50
2019-06-08T07:39:16.399Z,275.63
2019-06-08T07:41:09.318Z,213.75
2019-06-08T07:42:09.332Z,202.50
2019-06-08T07:44:02.255Z,174.38
2019-06-08T07:45:02.266Z,202.50
2019-06-08T07:46:55.858Z,208.13
2019-06-08T07:47:56.094Z,213.75
2019-06-08T07:49:49.322Z,253.13
2019-06-08T07:50:48.426Z,343.13
2019-06-08T07:52:41.053Z,315.00
2019-06-08T07:53:41.061Z,309.38
2019-06-08T07:55:33.983Z,303.75
2019-06-08T07:56:33.993Z,388.13
2019-06-08T07:58:26.920Z,315.00
2019-06-08T07:59:26.926Z,258.75
2019-06-08T08:01:32.895Z,360.00
2019-06-08T08:02:19.864Z,399.38
2019-06-08T08:04:12.781Z,433.13
2019-06-08T08:05:12.787Z,410.63
2019-06-08T08:07:05.736Z,326.25
2019-06-08T08:08:05.722Z,337.50
2019-06-08T08:09:58.814Z,348.75
2019-06-08T08:10:58.726Z,348.75
2019-06-08T08:12:52.692Z,416.25
2019-06-08T08:13:53.181Z,337.50
2019-06-08T08:15:44.516Z,337.50
2019-06-08T08:16:44.529Z,348.75
2019-06-08T08:18:37.464Z,500.63
2019-06-08T08:19:37.470Z,618.75
2019-06-08T08:21:30.385Z,697.50
2019-06-08T08:22:30.424Z,534.38
2019-06-08T08:24:23.322Z,472.50
2019-06-08T08:25:23.334Z,438.75
2019-06-08T08:27:17.889Z,399.38
2019-06-08T08:28:17.727Z,388.13
2019-06-08T08:30:09.187Z,331.88
2019-06-08T08:31:11.428Z,421.88
2019-06-08T08:33:03.329Z,444.38
2019-06-08T08:34:05.831Z,393.75
2019-06-08T08:35:58.634Z,382.50
2019-06-08T08:37:01.454Z,326.25
2019-06-08T08:38:50.208Z,365.63
2019-06-08T08:39:50.083Z,315.00
2019-06-08T08:41:41.793Z,337.50
2019-06-08T08:42:41.833Z,461.25
2019-06-08T08:44:34.734Z,601.88
2019-06-08T08:45:37.208Z,455.63
2019-06-08T08:47:30.586Z,450.00
2019-06-08T08:48:31.139Z,320.63
2019-06-08T08:50:20.596Z,320.63
2019-06-08T08:51:20.734Z,371.25
2019-06-08T08:53:13.535Z,253.13
2019-06-08T08:54:14.090Z,236.25
2019-06-08T08:56:07.345Z,236.25
2019-06-08T08:57:08.508Z,230.63
2019-06-08T08:59:01.504Z,258.75
2019-06-08T09:00:03.997Z,247.50
2019-06-08T09:01:52.941Z,253.13
2019-06-08T09:03:08.136Z,286.88
2019-06-08T09:04:47.563Z,315.00
2019-06-08T09:05:45.281Z,343.13
2019-06-08T09:07:38.622Z,466.88
2019-06-08T09:08:38.212Z,365.63
2019-06-08T09:10:31.138Z,433.13
2019-06-08T09:11:31.149Z,450.00
2019-06-08T09:13:24.075Z,371.25
2019-06-08T09:14:24.091Z,365.63
2019-06-08T09:16:17.671Z,230.63
2019-06-08T09:17:18.107Z,213.75
2019-06-08T09:19:09.988Z,208.13
2019-06-08T09:20:15.279Z,180.00
2019-06-08T09:22:04.063Z,292.50
2019-06-08T09:23:10.531Z,309.38
2019-06-08T09:24:56.867Z,281.25
2019-06-08T09:26:03.914Z,270.00
2019-06-08T09:27:48.743Z,281.25
2019-06-08T09:28:48.754Z,270.00
2019-06-08T09:30:41.680Z,331.88
2019-06-08T09:31:41.687Z,382.50
2019-06-08T09:33:34.617Z,298.13
2019-06-08T09:34:34.682Z,360.00
2019-06-08T09:36:28.729Z,315.00
2019-06-08T09:37:28.824Z,331.88
2019-06-08T09:39:20.506Z,264.38
2019-06-08T09:40:20.489Z,270.00
2019-06-08T09:42:13.414Z,225.00
2019-06-08T09:43:13.524Z,270.00
2019-06-08T09:45:08.887Z,275.63
2019-06-08T09:46:09.221Z,241.88
2019-06-08T09:48:03.634Z,258.75
2019-06-08T09:49:04.755Z,236.25
2019-06-08T09:50:53.059Z,219.38
2019-06-08T09:51:53.838Z,286.88
2019-06-08T09:53:47.530Z,281.25
2019-06-08T09:54:45.181Z,258.75
2019-06-08T09:56:38.132Z,241.88
2019-06-08T09:57:38.514Z,230.63
2019-06-08T09:59:31.077Z,326.25
2019-06-08T10:00:31.080Z,393.75
2019-06-08T10:02:23.995Z,466.88
2019-06-08T10:03:24.004Z,388.13
2019-06-08T10:05:18.561Z,455.63
2019-06-08T10:06:18.285Z,466.88
2019-06-08T10:08:09.926Z,410.63
2019-06-08T10:09:09.882Z,416.25
2019-06-08T10:11:04.879Z,500.63
2019-06-08T10:12:04.605Z,472.50
2019-06-08T10:13:59.458Z,360.00
2019-06-08T10:14:56.727Z,326.25
2019-06-08T10:16:48.698Z,360.00
2019-06-08T10:17:48.698Z,320.63
2019-06-08T10:19:41.609Z,371.25
2019-06-08T10:20:41.629Z,433.13
2019-06-08T10:22:34.573Z,466.88
2019-06-08T10:23:34.969Z,511.88
2019-06-08T10:25:28.625Z,635.63
2019-06-08T10:26:27.995Z,658.13
2019-06-08T10:28:21.755Z,585.00
2019-06-08T10:29:20.431Z,562.50
2019-06-08T10:31:13.353Z,540.00
2019-06-08T10:32:13.362Z,528.75
2019-06-08T10:34:10.994Z,478.13
2019-06-08T10:35:08.052Z,466.88
2019-06-08T10:37:04.950Z,483.75
2019-06-08T10:38:02.802Z,405.00
2019-06-08T10:39:52.176Z,568.13
2019-06-08T10:40:52.190Z,450.00
2019-06-08T10:42:45.127Z,270.00
2019-06-08T10:43:45.146Z,292.50
2019-06-08T10:45:38.068Z,253.13
2019-06-08T10:46:40.443Z,225.00
2019-06-08T10:48:31.026Z,196.88
2019-06-08T10:49:31.010Z,270.00
2019-06-08T10:51:23.935Z,320.63
2019-06-08T10:52:23.945Z,258.75
2019-06-08T10:54:17.404Z,326.25
2019-06-08T10:55:18.057Z,388.13
2019-06-08T10:57:10.023Z,292.50
2019-06-08T10:58:11.356Z,292.50
2019-06-08T11:00:11.473Z,483.75
2019-06-08T11:01:05.946Z,472.50
2019-06-08T11:02:55.678Z,528.75
2019-06-08T11:03:58.073Z,596.25
2019-06-08T11:05:51.281Z,601.88
2019-06-08T11:06:48.628Z,523.13
2019-06-08T11:08:41.558Z,630.00
2019-06-08T11:09:41.571Z,618.75
2019-06-08T11:11:34.531Z,675.00
2019-06-08T11:12:34.521Z,635.63
2019-06-08T11:14:27.458Z,579.38
2019-06-08T11:15:29.590Z,579.38
2019-06-08T11:17:20.389Z,579.38
2019-06-08T11:18:20.401Z,669.38
2019-06-08T11:20:13.787Z,669.38
2019-06-08T11:21:13.334Z,725.63
2019-06-08T11:23:09.806Z,736.88
2019-06-08T11:24:19.451Z,601.88
2019-06-08T11:26:03.768Z,579.38
2019-06-08T11:27:00.024Z,613.13
2019-06-08T11:28:52.320Z,635.63
2019-06-08T11:29:52.195Z,601.88
2019-06-08T11:31:45.258Z,714.38
2019-06-08T11:32:45.274Z,646.88
2019-06-08T11:34:38.560Z,585.00
2019-06-08T11:35:38.576Z,545.63
2019-06-08T11:37:31.502Z,517.50
2019-06-08T11:38:31.518Z,427.50
2019-06-08T11:40:27.717Z,309.38
2019-06-08T11:41:24.473Z,331.88
2019-06-08T11:43:18.323Z,337.50
2019-06-08T11:44:18.234Z,365.63
2019-06-08T11:46:10.680Z,365.63
2019-06-08T11:47:13.114Z,506.25
2019-06-08T11:49:04.928Z,433.13
2019-06-08T11:50:04.479Z,416.25
2019-06-08T11:51:58.227Z,511.88
2019-06-08T11:53:00.088Z,461.25
2019-06-08T11:54:49.154Z,466.88
2019-06-08T11:55:51.022Z,545.63
2019-06-08T11:57:42.099Z,416.25
2019-06-08T11:58:42.106Z,444.38
2019-06-08T12:00:35.030Z,511.88
2019-06-08T12:01:35.047Z,405.00
2019-06-08T12:03:30.383Z,511.88
2019-06-08T12:04:28.425Z,556.88
2019-06-08T12:06:23.541Z,708.75
2019-06-08T12:07:20.923Z,630.00
2019-06-08T12:09:14.134Z,697.50
2019-06-08T12:10:14.235Z,720.00
2019-06-08T12:12:13.633Z,669.38
2019-06-08T12:13:09.237Z,601.88
2019-06-08T12:14:59.772Z,590.63
2019-06-08T12:15:59.800Z,579.38
2019-06-08T12:17:52.687Z,579.38
2019-06-08T12:18:52.695Z,523.13
2019-06-08T12:20:45.614Z,433.13
2019-06-08T12:21:49.653Z,461.25
2019-06-08T12:23:38.562Z,551.25
2019-06-08T12:24:42.393Z,585.00
2019-06-08T12:26:31.507Z,483.75
2019-06-08T12:27:36.355Z,500.63
2019-06-08T12:29:24.455Z,562.50
2019-06-08T12:30:26.282Z,483.75
2019-06-08T12:32:18.393Z,466.88
2019-06-08T12:33:19.185Z,511.88
2019-06-08T12:35:11.300Z,489.38
2019-06-08T12:36:12.660Z,433.13
2019-06-08T12:38:03.344Z,371.25
2019-06-08T12:39:03.356Z,354.38
2019-06-08T12:40:58.550Z,348.75
2019-06-08T12:41:58.249Z,371.25
2019-06-08T12:43:49.235Z,388.13
2019-06-08T12:44:49.239Z,388.13
2019-06-08T12:46:42.166Z,326.25
2019-06-08T12:47:42.180Z,264.38
2019-06-08T12:49:35.200Z,202.50
2019-06-08T12:50:35.121Z,185.63
2019-06-08T12:52:29.801Z,236.25
2019-06-08T12:53:28.390Z,225.00
2019-06-08T12:55:24.924Z,264.38
2019-06-08T12:56:24.042Z,236.25
2019-06-08T12:58:14.472Z,236.25
2019-06-08T12:59:17.029Z,258.75
2019-06-08T13:01:08.225Z,292.50
2019-06-08T13:02:08.760Z,236.25
2019-06-08T13:03:59.810Z,208.13
2019-06-08T13:04:59.843Z,213.75
2019-06-08T13:06:52.748Z,180.00
2019-06-08T13:07:52.763Z,163.13
2019-06-08T13:09:48.175Z,219.38
2019-06-08T13:10:47.950Z,292.50
2019-06-08T13:12:40.879Z,315.00
2019-06-08T13:13:38.641Z,382.50
2019-06-08T13:15:31.626Z,438.75
2019-06-08T13:16:31.575Z,478.13
2019-06-08T13:18:24.504Z,416.25
2019-06-08T13:19:24.514Z,371.25
2019-06-08T13:21:31.590Z,596.25
2019-06-08T13:22:22.600Z,596.25
2019-06-08T13:24:11.351Z,641.25
2019-06-08T13:25:23.645Z,663.75
2019-06-08T13:27:03.321Z,714.38
2019-06-08T13:28:03.334Z,697.50
2019-06-08T13:29:57.780Z,680.63
2019-06-08T13:30:58.155Z,641.25
2019-06-08T13:32:49.212Z,601.88
2019-06-08T13:33:49.216Z,601.88
2019-06-08T13:35:42.148Z,590.63
2019-06-08T13:36:42.410Z,523.13
2019-06-08T13:38:35.091Z,495.00
2019-06-08T13:39:35.099Z,461.25
2019-06-08T13:41:29.957Z,444.38
2019-06-08T13:42:28.176Z,444.38
2019-06-08T13:44:21.947Z,444.38
2019-06-08T13:45:23.097Z,556.88
2019-06-08T13:47:14.319Z,511.88
2019-06-08T13:48:14.053Z,511.88
2019-06-08T13:50:08.307Z,506.25
2019-06-08T13:51:08.511Z,472.50
2019-06-08T13:52:59.978Z,540.00
2019-06-08T13:54:00.000Z,556.88
2019-06-08T13:55:56.286Z,568.13
2019-06-08T13:56:52.938Z,540.00
2019-06-08T13:58:46.377Z,500.63
2019-06-08T13:59:45.881Z,495.00
2019-06-08T14:01:38.807Z,450.00
2019-06-08T14:02:39.828Z,438.75
2019-06-08T14:04:31.863Z,309.38
2019-06-08T14:05:31.766Z,320.63
2019-06-08T14:07:31.198Z,438.75
2019-06-08T14:08:25.608Z,399.38
2019-06-08T14:10:20.857Z,410.63
2019-06-08T14:11:19.653Z,444.38
2019-06-08T14:13:10.604Z,478.13
2019-06-08T14:14:10.617Z,461.25
2019-06-08T14:16:03.526Z,472.50
2019-06-08T14:17:03.543Z,534.38
2019-06-08T14:18:56.467Z,421.88
2019-06-08T14:19:58.684Z,326.25
2019-06-08T14:21:49.407Z,556.88
2019-06-08T14:22:50.519Z,551.25
2019-06-08T14:24:42.366Z,540.00
2019-06-08T14:25:50.674Z,438.75
2019-06-08T14:27:37.454Z,410.63
2019-06-08T14:28:35.319Z,450.00
2019-06-08T14:30:31.732Z,545.63
2019-06-08T14:31:30.378Z,517.50
2019-06-08T14:33:26.926Z,511.88
2019-06-08T14:34:23.119Z,450.00
2019-06-08T14:36:14.180Z,500.63
2019-06-08T14:37:14.159Z,534.38
2019-06-08T14:39:10.419Z,354.38
2019-06-08T14:40:08.128Z,326.25
2019-06-08T14:42:00.034Z,416.25
2019-06-08T14:43:00.050Z,461.25
2019-06-08T14:44:52.983Z,343.13
2019-06-08T14:45:52.993Z,360.00
2019-06-08T14:47:47.528Z,275.63
2019-06-08T14:48:46.931Z,382.50
2019-06-08T14:50:40.821Z,382.50
2019-06-08T14:51:39.889Z,292.50
2019-06-08T14:53:32.793Z,326.25
2019-06-08T14:54:35.165Z,270.00
2019-06-08T14:56:27.027Z,292.50
2019-06-08T14:57:27.815Z,286.88
2019-06-08T14:59:20.268Z,230.63
2019-06-08T15:00:20.747Z,241.88
2019-06-08T15:02:11.647Z,315.00
2019-06-08T15:03:11.646Z,320.63
2019-06-08T15:05:04.674Z,320.63
2019-06-08T15:06:04.598Z,303.75
2019-06-08T15:07:58.154Z,247.50
2019-06-08T15:08:58.220Z,219.38
2019-06-08T15:10:50.462Z,354.38
2019-06-08T15:11:50.473Z,455.63
2019-06-08T15:13:43.401Z,309.38
2019-06-08T15:14:43.416Z,382.50
2019-06-08T15:16:38.607Z,382.50
2019-06-08T15:17:37.942Z,433.13
2019-06-08T15:19:31.185Z,478.13
2019-06-08T15:20:30.349Z,354.38
2019-06-08T15:22:22.312Z,421.88
2019-06-08T15:23:23.420Z,421.88
2019-06-08T15:25:15.167Z,399.38
2019-06-08T15:26:24.041Z,444.38
2019-06-08T15:28:08.381Z,309.38
2019-06-08T15:29:08.128Z,247.50
2019-06-08T15:31:01.050Z,286.88
2019-06-08T15:32:01.065Z,258.75
2019-06-08T15:33:53.989Z,281.25
2019-06-08T15:34:54.006Z,270.00
2019-06-08T15:36:46.941Z,241.88
2019-06-08T15:37:47.851Z,219.38
2019-06-08T15:39:39.879Z,225.00
2019-06-08T15:40:39.894Z,270.00
2019-06-08T15:42:33.580Z,348.75
2019-06-08T15:43:36.872Z,281.25
2019-06-08T15:45:27.089Z,247.50
2019-06-08T15:46:26.387Z,247.50
2019-06-08T15:48:20.478Z,230.63
2019-06-08T15:49:18.815Z,253.13
2019-06-08T15:51:11.641Z,315.00
2019-06-08T15:52:11.651Z,286.88
2019-06-08T15:54:04.581Z,281.25
2019-06-08T15:55:04.591Z,264.38
2019-06-08T15:56:58.531Z,247.50
2019-06-08T15:57:58.486Z,236.25
2019-06-08T15:59:50.461Z,213.75
2019-06-08T16:00:50.475Z,196.88
2019-06-08T16:02:43.396Z,180.00
2019-06-08T16:03:43.415Z,174.38
2019-06-08T16:05:36.350Z,174.38
2019-06-08T16:06:36.442Z,174.38
2019-06-08T16:08:30.352Z,180.00
2019-06-08T16:09:30.288Z,185.63
2019-06-08T16:11:24.089Z,230.63
2019-06-08T16:12:24.254Z,230.63
2019-06-08T16:14:16.157Z,241.88
2019-06-08T16:15:16.170Z,208.13
2019-06-08T16:17:09.101Z,208.13
2019-06-08T16:18:09.110Z,180.00
2019-06-08T16:20:02.044Z,174.38
2019-06-08T16:21:02.052Z,163.13
2019-06-08T16:22:54.976Z,219.38
2019-06-08T16:23:55.092Z,230.63
2019-06-08T16:25:47.920Z,247.50
2019-06-08T16:26:53.164Z,258.75
2019-06-08T16:28:40.852Z,191.25
2019-06-08T16:29:40.869Z,174.38
2019-06-08T16:31:33.793Z,191.25
2019-06-08T16:32:33.806Z,185.63
2019-06-08T16:34:27.241Z,185.63
2019-06-08T16:35:28.101Z,174.38
2019-06-08T16:37:19.671Z,213.75
2019-06-08T16:38:19.682Z,202.50
2019-06-08T16:40:12.617Z,157.50
2019-06-08T16:41:12.650Z,151.88
2019-06-08T16:43:05.553Z,123.75
2019-06-08T16:44:07.177Z,112.50
2019-06-08T16:45:58.495Z,118.13
2019-06-08T16:46:58.505Z,106.88
2019-06-08T16:48:51.467Z,67.50
2019-06-08T16:49:51.440Z,67.50
2019-06-08T16:51:44.369Z,39.38
2019-06-08T16:52:44.378Z,33.75
2019-06-08T16:54:37.548Z,22.50
2019-06-08T16:55:38.472Z,28.13
2019-06-08T16:57:30.980Z,45.00
2019-06-08T16:58:30.248Z,50.63
2019-06-08T17:00:34.528Z,61.88
2019-06-08T17:01:23.183Z,73.13
2019-06-08T17:03:16.102Z,106.88
2019-06-08T17:04:16.124Z,129.38
2019-06-08T17:06:09.066Z,225.00
2019-06-08T17:07:09.049Z,298.13
2019-06-08T17:09:01.967Z,326.25
2019-06-08T17:10:02.259Z,298.13
2019-06-08T17:11:54.905Z,258.75
2019-06-08T17:12:54.914Z,247.50
2019-06-08T17:14:48.836Z,275.63
2019-06-08T17:15:48.848Z,270.00
2019-06-08T17:17:41.777Z,264.38
2019-06-08T17:18:41.783Z,258.75
2019-06-08T17:20:36.207Z,213.75
2019-06-08T17:21:34.741Z,180.00
2019-06-08T17:23:27.644Z,163.13
2019-06-08T17:24:27.660Z,146.25
2019-06-08T17:26:20.584Z,140.63
2019-06-08T17:27:26.858Z,140.63
2019-06-08T17:29:13.518Z,118.13
2019-06-08T17:30:13.527Z,112.50
2019-06-08T17:32:06.453Z,123.75
2019-06-08T17:33:06.458Z,146.25
2019-06-08T17:34:59.402Z,219.38
2019-06-08T17:35:59.399Z,253.13
2019-06-08T17:37:52.321Z,225.00
2019-06-08T17:38:52.327Z,219.38
2019-06-08T17:40:45.258Z,202.50
2019-06-08T17:41:45.265Z,196.88
2019-06-08T17:43:38.245Z,174.38
2019-06-08T17:44:38.353Z,208.13
2019-06-08T17:46:32.313Z,213.75
2019-06-08T17:47:32.174Z,230.63
2019-06-08T17:49:24.050Z,202.50
2019-06-08T17:50:24.076Z,168.75
2019-06-08T17:52:16.984Z,157.50
2019-06-08T17:53:16.991Z,208.13
2019-06-08T17:55:09.907Z,225.00
2019-06-08T17:56:09.924Z,241.88
2019-06-08T17:58:02.852Z,180.00
2019-06-08T17:59:02.857Z,163.13
2019-06-08T18:00:55.787Z,191.25
2019-06-08T18:01:55.791Z,191.25
2019-06-08T18:03:48.722Z,202.50
2019-06-08T18:04:48.735Z,208.13
2019-06-08T18:06:42.975Z,253.13
2019-06-08T18:07:43.358Z,264.38
2019-06-08T18:09:34.595Z,241.88
2019-06-08T18:10:35.867Z,230.63
2019-06-08T18:12:27.530Z,219.38
2019-06-08T18:13:27.545Z,213.75
2019-06-08T18:15:20.473Z,253.13